sensor_id;sensor_type;location;lat;lon;timestamp;temperature;humidity
1091;DHT22;534;48.704;9.122;2022-10-31T04:00:55;14.80;77.40
1091;DHT22;534;48.704;9.122;2022-10-31T04:03:26;14.80;77.30
1091;DHT22;534;48.704;9.122;2022-10-31T04:05:54;14.80;77.30
1091;DHT22;534;48.704;9.122;2022-10-31T04:08:26;14.80;77.40
1091;DHT22;534;48.704;9.122;2022-10-31T04:10:54;14.80;77.30
1091;DHT22;534;48.704;9.122;2022-10-31T04:13:25;14.80;77.40
1091;DHT22;534;48.704;9.122;2022-10-31T04:15:55;14.80;77.10
1091;DHT22;534;48.704;9.122;2022-10-31T04:18:22;14.80;77.00
1091;DHT22;534;48.704;9.122;2022-10-31T04:20:58;14.80;77.10
1091;DHT22;534;48.704;9.122;2022-10-31T04:23:26;14.80;77.00
1091;DHT22;534;48.704;9.122;2022-10-31T04:25:52;14.80;77.00
1091;DHT22;534;48.704;9.122;2022-10-31T04:28:19;14.80;76.90
1091;DHT22;534;48.704;9.122;2022-10-31T04:30:46;14.80;76.70
1091;DHT22;534;48.704;9.122;2022-10-31T04:33:14;14.90;76.70
1091;DHT22;534;48.704;9.122;2022-10-31T04:35:41;14.90;76.70
1091;DHT22;534;48.704;9.122;2022-10-31T04:38:08;14.90;76.80
1091;DHT22;534;48.704;9.122;2022-10-31T04:40:34;14.90;76.70
1091;DHT22;534;48.704;9.122;2022-10-31T04:43:01;14.80;76.50
1091;DHT22;534;48.704;9.122;2022-10-31T04:45:28;14.80;76.50
1091;DHT22;534;48.704;9.122;2022-10-31T04:47:54;14.80;76.50
1091;DHT22;534;48.704;9.122;2022-10-31T04:50:22;14.80;76.80
1091;DHT22;534;48.704;9.122;2022-10-31T04:52:50;14.80;76.80
1091;DHT22;534;48.704;9.122;2022-10-31T04:55:16;14.70;76.80
1091;DHT22;534;48.704;9.122;2022-10-31T04:57:45;14.70;76.70
1091;DHT22;534;48.704;9.122;2022-10-31T05:00:14;14.70;76.80
1091;DHT22;534;48.704;9.122;2022-10-31T05:02:44;14.70;76.80
1091;DHT22;534;48.704;9.122;2022-10-31T05:05:12;14.70;77.00
1091;DHT22;534;48.704;9.122;2022-10-31T05:07:41;14.60;77.10
1091;DHT22;534;48.704;9.122;2022-10-31T05:10:08;14.50;77.20
1091;DHT22;534;48.704;9.122;2022-10-31T05:12:36;14.60;77.20
1091;DHT22;534;48.704;9.122;2022-10-31T05:15:03;14.60;77.50
1091;DHT22;534;48.704;9.122;2022-10-31T05:17:30;14.60;77.70
1091;DHT22;534;48.704;9.122;2022-10-31T05:19:57;14.60;77.70
1091;DHT22;534;48.704;9.122;2022-10-31T05:22:24;14.60;77.80
1091;DHT22;534;48.704;9.122;2022-10-31T05:24:52;14.50;77.70
1091;DHT22;534;48.704;9.122;2022-10-31T05:27:19;14.50;77.70
1091;DHT22;534;48.704;9.122;2022-10-31T05:29:46;14.50;77.90
1091;DHT22;534;48.704;9.122;2022-10-31T05:32:13;14.50;78.10
1091;DHT22;534;48.704;9.122;2022-10-31T05:34:39;14.30;77.70
1091;DHT22;534;48.704;9.122;2022-10-31T05:37:06;14.30;77.60
1091;DHT22;534;48.704;9.122;2022-10-31T05:39:33;14.30;77.50
1091;DHT22;534;48.704;9.122;2022-10-31T05:42:01;14.30;77.60
1091;DHT22;534;48.704;9.122;2022-10-31T05:44:27;14.20;77.80
1091;DHT22;534;48.704;9.122;2022-10-31T05:46:54;14.20;78.00
1091;DHT22;534;48.704;9.122;2022-10-31T05:49:21;14.20;78.10
1091;DHT22;534;48.704;9.122;2022-10-31T05:51:48;14.20;78.40
1091;DHT22;534;48.704;9.122;2022-10-31T05:54:14;14.20;78.60
1091;DHT22;534;48.704;9.122;2022-10-31T05:56:41;14.20;79.10
1091;DHT22;534;48.704;9.122;2022-10-31T05:59:09;14.20;79.00
1091;DHT22;534;48.704;9.122;2022-10-31T06:01:36;14.20;78.90
1091;DHT22;534;48.704;9.122;2022-10-31T06:04:03;14.10;79.00
1091;DHT22;534;48.704;9.122;2022-10-31T06:06:29;14.10;79.30
1091;DHT22;534;48.704;9.122;2022-10-31T06:08:56;14.20;79.20
1091;DHT22;534;48.704;9.122;2022-10-31T06:11:23;14.20;79.00
1091;DHT22;534;48.704;9.122;2022-10-31T06:13:50;14.30;78.90
1091;DHT22;534;48.704;9.122;2022-10-31T06:16:18;14.30;78.70
1091;DHT22;534;48.704;9.122;2022-10-31T06:18:45;14.40;78.10
1091;DHT22;534;48.704;9.122;2022-10-31T06:21:12;14.40;77.70
1091;DHT22;534;48.704;9.122;2022-10-31T06:23:38;14.30;77.50
1091;DHT22;534;48.704;9.122;2022-10-31T06:26:05;14.40;77.60
1091;DHT22;534;48.704;9.122;2022-10-31T06:28:32;14.40;77.60
1091;DHT22;534;48.704;9.122;2022-10-31T06:30:58;14.40;77.40
1091;DHT22;534;48.704;9.122;2022-10-31T06:33:26;14.50;77.30
1091;DHT22;534;48.704;9.122;2022-10-31T06:35:53;14.50;77.20
1091;DHT22;534;48.704;9.122;2022-10-31T06:38:20;14.50;77.00
1091;DHT22;534;48.704;9.122;2022-10-31T06:40:46;14.50;76.90
1091;DHT22;534;48.704;9.122;2022-10-31T06:43:13;15.00;76.80
1091;DHT22;534;48.704;9.122;2022-10-31T06:45:40;15.70;75.00
1091;DHT22;534;48.704;9.122;2022-10-31T06:48:07;16.50;72.40
1091;DHT22;534;48.704;9.122;2022-10-31T06:50:35;17.40;69.10
1091;DHT22;534;48.704;9.122;2022-10-31T06:53:02;17.90;66.80
1091;DHT22;534;48.704;9.122;2022-10-31T06:55:29;18.50;65.00
1091;DHT22;534;48.704;9.122;2022-10-31T06:57:57;18.80;63.60
1091;DHT22;534;48.704;9.122;2022-10-31T07:00:25;19.10;63.10
1091;DHT22;534;48.704;9.122;2022-10-31T07:02:54;19.40;62.50
1091;DHT22;534;48.704;9.122;2022-10-31T07:05:21;19.90;61.20
1091;DHT22;534;48.704;9.122;2022-10-31T07:07:52;20.00;60.90
1091;DHT22;534;48.704;9.122;2022-10-31T07:10:18;20.20;60.80
1091;DHT22;534;48.704;9.122;2022-10-31T07:12:45;20.10;60.20
1091;DHT22;534;48.704;9.122;2022-10-31T07:15:12;20.10;61.00
1091;DHT22;534;48.704;9.122;2022-10-31T07:17:38;20.40;60.50
1091;DHT22;534;48.704;9.122;2022-10-31T07:20:06;20.60;60.20
1091;DHT22;534;48.704;9.122;2022-10-31T07:22:34;20.80;60.10
1091;DHT22;534;48.704;9.122;2022-10-31T07:25:02;20.90;60.10
1091;DHT22;534;48.704;9.122;2022-10-31T07:27:35;20.80;60.30
1091;DHT22;534;48.704;9.122;2022-10-31T07:30:02;20.50;60.90
1091;DHT22;534;48.704;9.122;2022-10-31T07:32:37;20.20;61.70
1091;DHT22;534;48.704;9.122;2022-10-31T07:35:04;19.80;62.70
1091;DHT22;534;48.704;9.122;2022-10-31T07:37:30;19.60;63.70
1091;DHT22;534;48.704;9.122;2022-10-31T07:39:57;19.40;64.30
1091;DHT22;534;48.704;9.122;2022-10-31T07:42:25;19.40;64.50
1091;DHT22;534;48.704;9.122;2022-10-31T07:44:52;19.30;64.90
1091;DHT22;534;48.704;9.122;2022-10-31T07:47:19;19.40;65.00
1091;DHT22;534;48.704;9.122;2022-10-31T07:49:45;19.40;65.00
1091;DHT22;534;48.704;9.122;2022-10-31T07:52:12;19.50;64.90
1091;DHT22;534;48.704;9.122;2022-10-31T07:54:39;19.50;64.90
1091;DHT22;534;48.704;9.122;2022-10-31T07:57:05;19.60;65.00
1091;DHT22;534;48.704;9.122;2022-10-31T07:59:33;19.70;65.10
1091;DHT22;534;48.704;9.122;2022-10-31T08:02:00;19.80;64.80
1091;DHT22;534;48.704;9.122;2022-10-31T08:04:27;19.90;64.60
1091;DHT22;534;48.704;9.122;2022-10-31T08:06:53;20.00;64.30
1091;DHT22;534;48.704;9.122;2022-10-31T08:09:20;19.90;64.60
1091;DHT22;534;48.704;9.122;2022-10-31T08:11:47;19.50;65.30
1091;DHT22;534;48.704;9.122;2022-10-31T08:14:13;19.00;66.50
1091;DHT22;534;48.704;9.122;2022-10-31T08:16:41;18.80;67.30
1091;DHT22;534;48.704;9.122;2022-10-31T08:19:08;18.70;67.70
1091;DHT22;534;48.704;9.122;2022-10-31T08:21:35;18.70;68.30
1091;DHT22;534;48.704;9.122;2022-10-31T08:24:01;18.40;68.90
1091;DHT22;534;48.704;9.122;2022-10-31T08:26:28;18.30;69.60
1091;DHT22;534;48.704;9.122;2022-10-31T08:28:56;18.20;70.30
1091;DHT22;534;48.704;9.122;2022-10-31T08:31:22;17.90;71.60
1091;DHT22;534;48.704;9.122;2022-10-31T08:33:53;17.80;72.20
1091;DHT22;534;48.704;9.122;2022-10-31T08:36:20;17.80;72.50
1091;DHT22;534;48.704;9.122;2022-10-31T08:38:47;17.60;72.80
1091;DHT22;534;48.704;9.122;2022-10-31T08:41:14;17.50;73.70
1091;DHT22;534;48.704;9.122;2022-10-31T08:43:41;17.30;74.90
1091;DHT22;534;48.704;9.122;2022-10-31T08:46:08;17.10;75.80
1091;DHT22;534;48.704;9.122;2022-10-31T08:48:34;16.90;76.50
1091;DHT22;534;48.704;9.122;2022-10-31T08:51:03;16.60;77.60
1091;DHT22;534;48.704;9.122;2022-10-31T08:53:29;16.40;78.20
1091;DHT22;534;48.704;9.122;2022-10-31T08:55:56;16.50;78.60
1091;DHT22;534;48.704;9.122;2022-10-31T08:58:23;16.50;79.10
1091;DHT22;534;48.704;9.122;2022-10-31T09:00:52;16.60;79.20
1091;DHT22;534;48.704;9.122;2022-10-31T09:03:22;16.70;79.00
1091;DHT22;534;48.704;9.122;2022-10-31T09:05:49;17.00;78.20
1091;DHT22;534;48.704;9.122;2022-10-31T09:08:18;17.10;77.90
1091;DHT22;534;48.704;9.122;2022-10-31T09:10:44;17.20;78.50
1091;DHT22;534;48.704;9.122;2022-10-31T09:13:13;17.30;78.80
1091;DHT22;534;48.704;9.122;2022-10-31T09:15:42;17.20;79.40
1091;DHT22;534;48.704;9.122;2022-10-31T09:18:10;17.10;79.70
1091;DHT22;534;48.704;9.122;2022-10-31T09:20:39;17.30;79.60
1091;DHT22;534;48.704;9.122;2022-10-31T09:23:08;17.20;78.90
1091;DHT22;534;48.704;9.122;2022-10-31T09:25:36;17.10;79.70
1091;DHT22;534;48.704;9.122;2022-10-31T09:28:05;17.30;79.80
1091;DHT22;534;48.704;9.122;2022-10-31T09:30:33;17.30;79.70
1091;DHT22;534;48.704;9.122;2022-10-31T09:33:02;17.20;80.20
1091;DHT22;534;48.704;9.122;2022-10-31T09:35:29;17.00;80.80
1091;DHT22;534;48.704;9.122;2022-10-31T09:37:56;17.00;80.90
1091;DHT22;534;48.704;9.122;2022-10-31T09:40:27;17.10;80.50
1091;DHT22;534;48.704;9.122;2022-10-31T09:43:03;17.20;80.00
1091;DHT22;534;48.704;9.122;2022-10-31T09:45:34;17.40;79.70
1091;DHT22;534;48.704;9.122;2022-10-31T09:48:13;17.50;80.10
1091;DHT22;534;48.704;9.122;2022-10-31T09:50:46;17.70;79.20
1091;DHT22;534;48.704;9.122;2022-10-31T09:53:22;17.90;78.40
1091;DHT22;534;48.704;9.122;2022-10-31T09:55:51;18.00;78.20
1091;DHT22;534;48.704;9.122;2022-10-31T09:58:22;18.10;77.20
1091;DHT22;534;48.704;9.122;2022-10-31T10:00:50;18.10;76.80
1091;DHT22;534;48.704;9.122;2022-10-31T10:03:27;18.10;76.10
1091;DHT22;534;48.704;9.122;2022-10-31T10:05:59;18.00;76.10
1091;DHT22;534;48.704;9.122;2022-10-31T10:08:30;18.10;76.30
1091;DHT22;534;48.704;9.122;2022-10-31T10:11:08;18.20;76.30
1091;DHT22;534;48.704;9.122;2022-10-31T10:13:55;18.10;77.40
1091;DHT22;534;48.704;9.122;2022-10-31T10:16:39;18.20;77.60
1091;DHT22;534;48.704;9.122;2022-10-31T10:19:30;18.20;77.60
1091;DHT22;534;48.704;9.122;2022-10-31T10:22:05;18.10;77.80
1091;DHT22;534;48.704;9.122;2022-10-31T10:24:48;18.20;77.80
1091;DHT22;534;48.704;9.122;2022-10-31T10:27:25;18.20;76.60
1091;DHT22;534;48.704;9.122;2022-10-31T10:30:00;18.20;76.30
1091;DHT22;534;48.704;9.122;2022-10-31T10:32:31;18.10;76.70
1091;DHT22;534;48.704;9.122;2022-10-31T10:35:08;18.00;77.20
1091;DHT22;534;48.704;9.122;2022-10-31T10:37:39;18.00;77.70
1091;DHT22;534;48.704;9.122;2022-10-31T10:40:13;18.10;77.60
1091;DHT22;534;48.704;9.122;2022-10-31T10:42:40;18.00;77.70
1091;DHT22;534;48.704;9.122;2022-10-31T10:45:42;18.00;77.70
1091;DHT22;534;48.704;9.122;2022-10-31T10:48:33;18.00;78.20
1091;DHT22;534;48.704;9.122;2022-10-31T10:51:03;18.00;77.60
1091;DHT22;534;48.704;9.122;2022-10-31T10:53:43;18.10;77.90
1091;DHT22;534;48.704;9.122;2022-10-31T10:56:35;18.30;78.10
1091;DHT22;534;48.704;9.122;2022-10-31T10:59:03;18.40;77.40
1091;DHT22;534;48.704;9.122;2022-10-31T11:01:31;18.40;77.30
1091;DHT22;534;48.704;9.122;2022-10-31T11:03:58;18.50;76.90
1091;DHT22;534;48.704;9.122;2022-10-31T11:06:25;18.60;76.20
1091;DHT22;534;48.704;9.122;2022-10-31T11:08:52;18.60;76.30
1091;DHT22;534;48.704;9.122;2022-10-31T11:11:27;18.60;76.40
1091;DHT22;534;48.704;9.122;2022-10-31T11:14:00;18.70;76.80
1091;DHT22;534;48.704;9.122;2022-10-31T11:16:32;18.80;76.90
1091;DHT22;534;48.704;9.122;2022-10-31T11:19:08;18.90;75.30
1091;DHT22;534;48.704;9.122;2022-10-31T11:21:36;18.80;75.30
1091;DHT22;534;48.704;9.122;2022-10-31T11:24:03;18.90;76.10
1091;DHT22;534;48.704;9.122;2022-10-31T11:26:30;19.00;74.60
1091;DHT22;534;48.704;9.122;2022-10-31T11:29:00;19.10;74.50
1091;DHT22;534;48.704;9.122;2022-10-31T11:31:29;19.10;73.20
1091;DHT22;534;48.704;9.122;2022-10-31T11:33:59;19.10;74.40
1091;DHT22;534;48.704;9.122;2022-10-31T11:36:30;19.20;74.70
1091;DHT22;534;48.704;9.122;2022-10-31T11:38:58;19.30;74.90
1091;DHT22;534;48.704;9.122;2022-10-31T11:41:27;19.50;74.70
1091;DHT22;534;48.704;9.122;2022-10-31T11:43:57;19.60;72.50
1091;DHT22;534;48.704;9.122;2022-10-31T11:46:30;19.50;72.80
1091;DHT22;534;48.704;9.122;2022-10-31T11:49:01;19.60;72.60
1091;DHT22;534;48.704;9.122;2022-10-31T11:51:31;19.50;73.30
1091;DHT22;534;48.704;9.122;2022-10-31T11:54:00;19.50;72.20
1091;DHT22;534;48.704;9.122;2022-10-31T11:56:36;19.50;73.10
1091;DHT22;534;48.704;9.122;2022-10-31T11:59:14;19.40;72.70
1091;DHT22;534;48.704;9.122;2022-10-31T12:01:47;19.70;72.50
1091;DHT22;534;48.704;9.122;2022-10-31T12:04:16;19.80;72.40
1091;DHT22;534;48.704;9.122;2022-10-31T12:06:44;20.10;72.10
1091;DHT22;534;48.704;9.122;2022-10-31T12:09:20;20.40;71.90
1091;DHT22;534;48.704;9.122;2022-10-31T12:11:56;20.40;70.70
1091;DHT22;534;48.704;9.122;2022-10-31T12:14:35;20.20;71.10
1091;DHT22;534;48.704;9.122;2022-10-31T12:17:11;20.20;71.40
1091;DHT22;534;48.704;9.122;2022-10-31T12:19:44;20.20;71.30
1091;DHT22;534;48.704;9.122;2022-10-31T12:22:17;20.40;71.10
1091;DHT22;534;48.704;9.122;2022-10-31T12:24:59;20.60;70.70
1091;DHT22;534;48.704;9.122;2022-10-31T12:27:43;20.70;70.60
1091;DHT22;534;48.704;9.122;2022-10-31T12:30:18;20.60;70.90
1091;DHT22;534;48.704;9.122;2022-10-31T12:33:13;20.40;71.40
1091;DHT22;534;48.704;9.122;2022-10-31T12:35:51;20.10;72.10
1091;DHT22;534;48.704;9.122;2022-10-31T12:38:40;19.80;73.40
1091;DHT22;534;48.704;9.122;2022-10-31T12:41:21;19.50;74.40
1091;DHT22;534;48.704;9.122;2022-10-31T12:43:54;19.50;74.70
1091;DHT22;534;48.704;9.122;2022-10-31T12:46:29;19.30;75.00
1091;DHT22;534;48.704;9.122;2022-10-31T12:49:24;19.20;75.70
1091;DHT22;534;48.704;9.122;2022-10-31T12:52:05;18.90;76.50
1091;DHT22;534;48.704;9.122;2022-10-31T12:54:47;18.80;76.90
1091;DHT22;534;48.704;9.122;2022-10-31T12:57:23;18.90;77.10
1091;DHT22;534;48.704;9.122;2022-10-31T12:59:56;19.10;76.90
1091;DHT22;534;48.704;9.122;2022-10-31T13:02:27;19.30;76.50
1091;DHT22;534;48.704;9.122;2022-10-31T13:04:58;19.30;76.40
1091;DHT22;534;48.704;9.122;2022-10-31T13:07:30;19.10;76.40
1091;DHT22;534;48.704;9.122;2022-10-31T13:10:02;19.10;76.80
1091;DHT22;534;48.704;9.122;2022-10-31T13:12:32;19.20;76.50
1091;DHT22;534;48.704;9.122;2022-10-31T13:15:05;19.20;76.20
1091;DHT22;534;48.704;9.122;2022-10-31T13:17:37;19.30;76.30
1091;DHT22;534;48.704;9.122;2022-10-31T13:20:22;19.30;76.30
1091;DHT22;534;48.704;9.122;2022-10-31T13:22:53;19.10;76.10
1091;DHT22;534;48.704;9.122;2022-10-31T13:25:23;18.90;76.90
1091;DHT22;534;48.704;9.122;2022-10-31T13:27:54;18.90;76.80
1091;DHT22;534;48.704;9.122;2022-10-31T13:30:23;19.20;76.70
1091;DHT22;534;48.704;9.122;2022-10-31T13:32:56;19.40;75.40
1091;DHT22;534;48.704;9.122;2022-10-31T13:35:29;19.70;74.40
1091;DHT22;534;48.704;9.122;2022-10-31T13:38:06;21.00;71.90
1091;DHT22;534;48.704;9.122;2022-10-31T13:40:43;23.90;64.70
1091;DHT22;534;48.704;9.122;2022-10-31T13:43:18;25.90;59.00
1091;DHT22;534;48.704;9.122;2022-10-31T13:45:50;26.50;57.30
1091;DHT22;534;48.704;9.122;2022-10-31T13:48:36;25.60;58.60
1091;DHT22;534;48.704;9.122;2022-10-31T13:51:06;24.60;60.80
1091;DHT22;534;48.704;9.122;2022-10-31T13:53:43;23.90;62.80
1091;DHT22;534;48.704;9.122;2022-10-31T13:56:19;24.00;62.90
1091;DHT22;534;48.704;9.122;2022-10-31T13:59:03;24.20;62.00
1091;DHT22;534;48.704;9.122;2022-10-31T14:01:31;24.40;61.40
1091;DHT22;534;48.704;9.122;2022-10-31T14:04:04;24.30;61.60
1091;DHT22;534;48.704;9.122;2022-10-31T14:06:37;24.00;61.90
1091;DHT22;534;48.704;9.122;2022-10-31T14:09:20;23.80;62.80
1091;DHT22;534;48.704;9.122;2022-10-31T14:11:48;23.30;63.90
1091;DHT22;534;48.704;9.122;2022-10-31T14:14:17;23.30;64.30
1091;DHT22;534;48.704;9.122;2022-10-31T14:16:45;23.70;63.90
1091;DHT22;534;48.704;9.122;2022-10-31T14:19:18;24.00;63.00
1091;DHT22;534;48.704;9.122;2022-10-31T14:21:46;24.10;62.90
1091;DHT22;534;48.704;9.122;2022-10-31T14:24:28;23.70;63.40
1091;DHT22;534;48.704;9.122;2022-10-31T14:26:57;23.50;64.00
1091;DHT22;534;48.704;9.122;2022-10-31T14:29:26;23.40;64.00
1091;DHT22;534;48.704;9.122;2022-10-31T14:31:56;23.50;63.90
1091;DHT22;534;48.704;9.122;2022-10-31T14:34:26;23.20;63.90
1091;DHT22;534;48.704;9.122;2022-10-31T14:37:10;22.60;65.40
1091;DHT22;534;48.704;9.122;2022-10-31T14:39:49;22.30;66.50
1091;DHT22;534;48.704;9.122;2022-10-31T14:42:31;21.80;67.60
1091;DHT22;534;48.704;9.122;2022-10-31T14:45:16;21.50;68.80
1091;DHT22;534;48.704;9.122;2022-10-31T14:47:54;21.40;69.40
1091;DHT22;534;48.704;9.122;2022-10-31T14:50:37;21.50;69.00
1091;DHT22;534;48.704;9.122;2022-10-31T14:53:11;21.60;68.80
1091;DHT22;534;48.704;9.122;2022-10-31T14:55:43;21.60;68.80
1091;DHT22;534;48.704;9.122;2022-10-31T14:58:17;21.70;68.90
1091;DHT22;534;48.704;9.122;2022-10-31T15:00:45;21.70;69.10
1091;DHT22;534;48.704;9.122;2022-10-31T15:03:14;21.70;69.40
1091;DHT22;534;48.704;9.122;2022-10-31T15:05:46;21.80;69.50
1091;DHT22;534;48.704;9.122;2022-10-31T15:08:26;21.80;69.70
1091;DHT22;534;48.704;9.122;2022-10-31T15:10:55;21.70;69.60
1091;DHT22;534;48.704;9.122;2022-10-31T15:13:22;21.70;70.00
1091;DHT22;534;48.704;9.122;2022-10-31T15:15:50;21.60;70.10
1091;DHT22;534;48.704;9.122;2022-10-31T15:18:21;21.40;70.60
1091;DHT22;534;48.704;9.122;2022-10-31T15:20:48;21.30;71.10
1091;DHT22;534;48.704;9.122;2022-10-31T15:23:21;21.10;71.40
1091;DHT22;534;48.704;9.122;2022-10-31T15:25:48;21.00;71.90
1091;DHT22;534;48.704;9.122;2022-10-31T15:28:22;20.90;72.30
1091;DHT22;534;48.704;9.122;2022-10-31T15:30:51;20.80;72.60
1091;DHT22;534;48.704;9.122;2022-10-31T15:33:20;20.70;73.00
1091;DHT22;534;48.704;9.122;2022-10-31T15:35:55;20.50;73.30
1091;DHT22;534;48.704;9.122;2022-10-31T15:38:23;20.40;73.70
1091;DHT22;534;48.704;9.122;2022-10-31T15:40:58;20.30;74.00
1091;DHT22;534;48.704;9.122;2022-10-31T15:43:27;20.10;74.40
1091;DHT22;534;48.704;9.122;2022-10-31T15:45:57;20.00;74.60
1091;DHT22;534;48.704;9.122;2022-10-31T15:48:25;19.90;75.00
1091;DHT22;534;48.704;9.122;2022-10-31T15:50:54;19.80;75.20
1091;DHT22;534;48.704;9.122;2022-10-31T15:53:23;19.70;75.40
1091;DHT22;534;48.704;9.122;2022-10-31T15:55:54;19.70;75.70
1091;DHT22;534;48.704;9.122;2022-10-31T15:58:21;19.60;75.90
1091;DHT22;534;48.704;9.122;2022-10-31T16:00:59;19.50;76.00
1091;DHT22;534;48.704;9.122;2022-10-31T16:03:28;19.40;76.40
1091;DHT22;534;48.704;9.122;2022-10-31T16:05:56;19.30;76.60
1091;DHT22;534;48.704;9.122;2022-10-31T16:08:25;19.20;76.80
1091;DHT22;534;48.704;9.122;2022-10-31T16:10:53;19.20;77.00
1091;DHT22;534;48.704;9.122;2022-10-31T16:13:23;19.10;77.20
1091;DHT22;534;48.704;9.122;2022-10-31T16:15:55;19.00;77.40
1091;DHT22;534;48.704;9.122;2022-10-31T16:18:24;19.00;77.50
1091;DHT22;534;48.704;9.122;2022-10-31T16:20:53;18.90;77.60
1091;DHT22;534;48.704;9.122;2022-10-31T16:23:22;18.80;77.80
1091;DHT22;534;48.704;9.122;2022-10-31T16:25:51;18.80;77.80
1091;DHT22;534;48.704;9.122;2022-10-31T16:28:21;18.70;78.00
1091;DHT22;534;48.704;9.122;2022-10-31T16:30:50;18.70;77.90
1091;DHT22;534;48.704;9.122;2022-10-31T16:33:26;18.60;77.90
1091;DHT22;534;48.704;9.122;2022-10-31T16:35:54;18.60;78.00
1091;DHT22;534;48.704;9.122;2022-10-31T16:38:20;18.50;78.00
1091;DHT22;534;48.704;9.122;2022-10-31T16:40:48;18.40;78.20
1091;DHT22;534;48.704;9.122;2022-10-31T16:43:16;18.30;78.50
1091;DHT22;534;48.704;9.122;2022-10-31T16:45:45;18.30;78.70
1091;DHT22;534;48.704;9.122;2022-10-31T16:48:14;18.30;78.70
1091;DHT22;534;48.704;9.122;2022-10-31T16:50:43;18.20;78.80
1091;DHT22;534;48.704;9.122;2022-10-31T16:53:11;18.20;78.90
1091;DHT22;534;48.704;9.122;2022-10-31T16:55:43;18.10;78.80
1091;DHT22;534;48.704;9.122;2022-10-31T16:58:16;18.00;78.90
1091;DHT22;534;48.704;9.122;2022-10-31T17:00:44;18.00;78.90
1091;DHT22;534;48.704;9.122;2022-10-31T17:03:11;18.00;78.80
1091;DHT22;534;48.704;9.122;2022-10-31T17:05:38;17.90;78.90
1091;DHT22;534;48.704;9.122;2022-10-31T17:08:06;17.90;79.00
1091;DHT22;534;48.704;9.122;2022-10-31T17:10:34;17.80;79.20
1091;DHT22;534;48.704;9.122;2022-10-31T17:13:02;17.80;79.20
1091;DHT22;534;48.704;9.122;2022-10-31T17:15:31;17.70;79.20
1091;DHT22;534;48.704;9.122;2022-10-31T17:18:01;17.70;79.40
1091;DHT22;534;48.704;9.122;2022-10-31T17:20:29;17.70;79.40
1091;DHT22;534;48.704;9.122;2022-10-31T17:22:58;17.60;79.40
1091;DHT22;534;48.704;9.122;2022-10-31T17:25:28;17.60;79.40
1091;DHT22;534;48.704;9.122;2022-10-31T17:27:56;17.60;79.20
1091;DHT22;534;48.704;9.122;2022-10-31T17:30:24;17.60;79.20
1091;DHT22;534;48.704;9.122;2022-10-31T17:32:51;17.50;79.20
1091;DHT22;534;48.704;9.122;2022-10-31T17:35:19;17.50;79.00
1091;DHT22;534;48.704;9.122;2022-10-31T17:37:45;17.50;79.10
1091;DHT22;534;48.704;9.122;2022-10-31T17:40:14;17.40;79.10
1091;DHT22;534;48.704;9.122;2022-10-31T17:42:48;17.40;78.90
1091;DHT22;534;48.704;9.122;2022-10-31T17:45:15;17.40;78.80
1091;DHT22;534;48.704;9.122;2022-10-31T17:47:41;17.40;78.70
1091;DHT22;534;48.704;9.122;2022-10-31T17:50:08;17.30;78.70
1091;DHT22;534;48.704;9.122;2022-10-31T17:52:35;17.30;78.50
1091;DHT22;534;48.704;9.122;2022-10-31T17:55:02;17.30;78.80
1091;DHT22;534;48.704;9.122;2022-10-31T17:57:32;17.20;78.80
1091;DHT22;534;48.704;9.122;2022-10-31T18:00:00;17.20;78.70
1091;DHT22;534;48.704;9.122;2022-10-31T18:02:27;17.20;78.60
1091;DHT22;534;48.704;9.122;2022-10-31T18:04:54;17.10;78.70
1091;DHT22;534;48.704;9.122;2022-10-31T18:07:21;17.10;78.90
1091;DHT22;534;48.704;9.122;2022-10-31T18:09:47;17.00;78.90
1091;DHT22;534;48.704;9.122;2022-10-31T18:12:15;17.00;78.90
1091;DHT22;534;48.704;9.122;2022-10-31T18:14:42;17.00;78.90
1091;DHT22;534;48.704;9.122;2022-10-31T18:17:10;17.00;78.90
1091;DHT22;534;48.704;9.122;2022-10-31T18:19:37;17.00;78.90
1091;DHT22;534;48.704;9.122;2022-10-31T18:22:03;16.90;79.10
1091;DHT22;534;48.704;9.122;2022-10-31T18:24:30;16.80;79.20
1091;DHT22;534;48.704;9.122;2022-10-31T18:26:57;16.80;79.30
1091;DHT22;534;48.704;9.122;2022-10-31T18:29:24;16.70;79.20
1091;DHT22;534;48.704;9.122;2022-10-31T18:31:51;16.70;79.10
1091;DHT22;534;48.704;9.122;2022-10-31T18:34:21;16.60;79.40
1091;DHT22;534;48.704;9.122;2022-10-31T18:36:48;16.40;80.00
1091;DHT22;534;48.704;9.122;2022-10-31T18:39:15;16.30;80.20
1091;DHT22;534;48.704;9.122;2022-10-31T18:41:42;16.20;80.50
1091;DHT22;534;48.704;9.122;2022-10-31T18:44:09;16.20;80.70
1091;DHT22;534;48.704;9.122;2022-10-31T18:46:36;16.30;80.70
1091;DHT22;534;48.704;9.122;2022-10-31T18:49:04;16.40;80.50
1091;DHT22;534;48.704;9.122;2022-10-31T18:51:32;16.40;80.50
1091;DHT22;534;48.704;9.122;2022-10-31T18:54:00;16.40;80.50
1091;DHT22;534;48.704;9.122;2022-10-31T18:56:28;16.40;80.40
1091;DHT22;534;48.704;9.122;2022-10-31T18:58:57;16.40;80.50
1091;DHT22;534;48.704;9.122;2022-10-31T19:01:26;16.30;80.80
1091;DHT22;534;48.704;9.122;2022-10-31T19:03:54;16.30;81.00
1091;DHT22;534;48.704;9.122;2022-10-31T19:06:22;16.30;81.10
1091;DHT22;534;48.704;9.122;2022-10-31T19:08:55;15.90;82.00
1091;DHT22;534;48.704;9.122;2022-10-31T19:11:22;15.70;82.60
1091;DHT22;534;48.704;9.122;2022-10-31T19:13:49;15.80;82.30
1091;DHT22;534;48.704;9.122;2022-10-31T19:16:16;16.00;81.90
1091;DHT22;534;48.704;9.122;2022-10-31T19:18:43;16.10;81.50
1091;DHT22;534;48.704;9.122;2022-10-31T19:21:11;16.00;81.50
1091;DHT22;534;48.704;9.122;2022-10-31T19:23:38;16.00;81.40
1091;DHT22;534;48.704;9.122;2022-10-31T19:26:06;16.00;81.50
1091;DHT22;534;48.704;9.122;2022-10-31T19:28:35;16.10;81.20
1091;DHT22;534;48.704;9.122;2022-10-31T19:31:02;16.20;80.80
1091;DHT22;534;48.704;9.122;2022-10-31T19:33:29;16.10;80.70
1091;DHT22;534;48.704;9.122;2022-10-31T19:35:58;16.20;80.80
1091;DHT22;534;48.704;9.122;2022-10-31T19:38:24;16.00;81.50
1091;DHT22;534;48.704;9.122;2022-10-31T19:40:55;16.00;82.10
1091;DHT22;534;48.704;9.122;2022-10-31T19:43:23;16.00;82.10
1091;DHT22;534;48.704;9.122;2022-10-31T19:45:54;16.00;81.90
1091;DHT22;534;48.704;9.122;2022-10-31T19:48:21;16.10;81.50
1091;DHT22;534;48.704;9.122;2022-10-31T19:50:48;16.10;81.10
1091;DHT22;534;48.704;9.122;2022-10-31T19:53:15;16.00;81.50
1091;DHT22;534;48.704;9.122;2022-10-31T19:55:41;16.00;81.80
1091;DHT22;534;48.704;9.122;2022-10-31T19:58:08;16.10;81.70
1091;DHT22;534;48.704;9.122;2022-10-31T20:00:38;16.20;81.30
1091;DHT22;534;48.704;9.122;2022-10-31T20:03:05;16.30;81.00
1091;DHT22;534;48.704;9.122;2022-10-31T20:05:32;16.40;80.70
1091;DHT22;534;48.704;9.122;2022-10-31T20:07:58;16.50;80.30
1091;DHT22;534;48.704;9.122;2022-10-31T20:10:25;16.50;80.30
1091;DHT22;534;48.704;9.122;2022-10-31T20:12:52;16.40;80.20
1091;DHT22;534;48.704;9.122;2022-10-31T20:15:18;16.50;80.90
1091;DHT22;534;48.704;9.122;2022-10-31T20:17:47;16.50;81.00
1091;DHT22;534;48.704;9.122;2022-10-31T20:20:13;16.50;80.90
1091;DHT22;534;48.704;9.122;2022-10-31T20:22:40;16.50;80.10
1091;DHT22;534;48.704;9.122;2022-10-31T20:25:07;16.40;80.50
1091;DHT22;534;48.704;9.122;2022-10-31T20:27:34;16.30;80.50
1091;DHT22;534;48.704;9.122;2022-10-31T20:30:00;16.20;81.20
1091;DHT22;534;48.704;9.122;2022-10-31T20:32:27;16.20;81.10
1091;DHT22;534;48.704;9.122;2022-10-31T20:34:55;16.30;81.00